sensor_id;sensor_type;location;lat;lon;timestamp;pressure;altitude;pressure_sealevel;temperature;humidity
21824;BME280;11074;48.596;9.238;2023-02-26T00:00:08;97716.88;;;4.48;66.28
21824;BME280;11074;48.596;9.238;2023-02-26T00:02:37;97713.59;;;4.52;65.72
21824;BME280;11074;48.596;9.238;2023-02-26T00:05:04;97714.84;;;4.50;65.32
21824;BME280;11074;48.596;9.238;2023-02-26T00:07:31;97721.03;;;4.55;66.04
21824;BME280;11074;48.596;9.238;2023-02-26T00:09:56;97722.22;;;4.59;65.09
21824;BME280;11074;48.596;9.238;2023-02-26T00:12:22;97726.72;;;4.59;65.55
21824;BME280;11074;48.596;9.238;2023-02-26T00:14:48;97720.59;;;4.58;65.11
21824;BME280;11074;48.596;9.238;2023-02-26T00:20:25;97727.72;;;4.58;64.46
21824;BME280;11074;48.596;9.238;2023-02-26T00:22:51;97729.00;;;4.55;65.31
21824;BME280;11074;48.596;9.238;2023-02-26T00:25:17;97727.16;;;4.56;65.94
21824;BME280;11074;48.596;9.238;2023-02-26T00:27:43;97727.72;;;4.58;65.39
21824;BME280;11074;48.596;9.238;2023-02-26T00:30:10;97725.91;;;4.58;66.18
21824;BME280;11074;48.596;9.238;2023-02-26T00:32:36;97728.50;;;4.47;67.10
21824;BME280;11074;48.596;9.238;2023-02-26T00:35:06;97732.25;;;4.39;67.62
21824;BME280;11074;48.596;9.238;2023-02-26T00:38:03;97732.75;;;4.48;66.05
21824;BME280;11074;48.596;9.238;2023-02-26T00:40:46;97736.34;;;4.53;66.90
21824;BME280;11074;48.596;9.238;2023-02-26T00:43:24;97728.66;;;4.52;66.14
21824;BME280;11074;48.596;9.238;2023-02-26T00:46:01;97729.22;;;4.54;66.39
21824;BME280;11074;48.596;9.238;2023-02-26T00:51:55;97730.63;;;4.56;66.36
21824;BME280;11074;48.596;9.238;2023-02-26T00:54:27;97733.03;;;4.58;66.67
21824;BME280;11074;48.596;9.238;2023-02-26T00:56:54;97734.50;;;4.54;65.63
21824;BME280;11074;48.596;9.238;2023-02-26T00:59:21;97725.31;;;4.56;66.05
21824;BME280;11074;48.596;9.238;2023-02-26T01:01:48;97729.47;;;4.52;67.02
21824;BME280;11074;48.596;9.238;2023-02-26T01:04:17;97724.16;;;4.52;66.67
21824;BME280;11074;48.596;9.238;2023-02-26T01:06:56;97724.09;;;4.41;66.24
21824;BME280;11074;48.596;9.238;2023-02-26T01:09:32;97717.16;;;4.28;66.77
21824;BME280;11074;48.596;9.238;2023-02-26T01:12:03;97721.84;;;4.26;65.94
21824;BME280;11074;48.596;9.238;2023-02-26T01:14:32;97731.78;;;4.31;66.29
21824;BME280;11074;48.596;9.238;2023-02-26T01:17:22;97723.31;;;4.22;66.21
21824;BME280;11074;48.596;9.238;2023-02-26T01:19:52;97728.25;;;4.18;66.58
21824;BME280;11074;48.596;9.238;2023-02-26T01:25:16;97724.91;;;3.93;66.39
21824;BME280;11074;48.596;9.238;2023-02-26T01:27:43;97724.44;;;3.78;66.84
21824;BME280;11074;48.596;9.238;2023-02-26T01:30:10;97728.03;;;3.84;67.43
21824;BME280;11074;48.596;9.238;2023-02-26T01:32:53;97732.44;;;3.90;67.46
21824;BME280;11074;48.596;9.238;2023-02-26T01:49:40;97727.91;;;4.15;65.57
21824;BME280;11074;48.596;9.238;2023-02-26T01:55:11;97731.84;;;4.24;65.25
21824;BME280;11074;48.596;9.238;2023-02-26T01:57:37;97732.41;;;4.26;65.22
21824;BME280;11074;48.596;9.238;2023-02-26T02:00:04;97733.91;;;4.22;64.99
21824;BME280;11074;48.596;9.238;2023-02-26T02:02:31;97733.34;;;4.20;65.60
21824;BME280;11074;48.596;9.238;2023-02-26T02:05:02;97741.31;;;4.13;65.88
21824;BME280;11074;48.596;9.238;2023-02-26T02:07:29;97733.84;;;4.10;64.69
21824;BME280;11074;48.596;9.238;2023-02-26T02:09:54;97743.94;;;4.02;64.11
21824;BME280;11074;48.596;9.238;2023-02-26T02:12:40;97750.00;;;4.02;65.05
21824;BME280;11074;48.596;9.238;2023-02-26T02:18:51;97742.06;;;3.84;65.54
21824;BME280;11074;48.596;9.238;2023-02-26T02:21:27;97748.91;;;3.92;67.21
21824;BME280;11074;48.596;9.238;2023-02-26T02:24:24;97747.78;;;3.81;64.49
21824;BME280;11074;48.596;9.238;2023-02-26T02:27:19;97750.66;;;3.80;66.83
21824;BME280;11074;48.596;9.238;2023-02-26T02:30:33;97745.84;;;3.52;66.44
21824;BME280;11074;48.596;9.238;2023-02-26T02:33:09;97757.81;;;3.54;66.54
21824;BME280;11074;48.596;9.238;2023-02-26T02:35:49;97762.06;;;3.55;66.53
21824;BME280;11074;48.596;9.238;2023-02-26T02:38:27;97757.47;;;3.69;67.36
21824;BME280;11074;48.596;9.238;2023-02-26T02:41:10;97759.81;;;3.59;65.76
21824;BME280;11074;48.596;9.238;2023-02-26T02:43:41;97758.91;;;3.47;65.86
21824;BME280;11074;48.596;9.238;2023-02-26T02:46:34;97757.59;;;3.56;67.44
21824;BME280;11074;48.596;9.238;2023-02-26T02:49:24;97765.09;;;3.59;66.69
21824;BME280;11074;48.596;9.238;2023-02-26T02:52:12;97763.75;;;3.50;67.18
21824;BME280;11074;48.596;9.238;2023-02-26T02:54:57;97769.94;;;3.62;67.80
21824;BME280;11074;48.596;9.238;2023-02-26T02:57:30;97773.06;;;3.52;65.74
21824;BME280;11074;48.596;9.238;2023-02-26T03:00:21;97765.38;;;3.26;65.95
21824;BME280;11074;48.596;9.238;2023-02-26T03:05:43;97775.09;;;3.32;66.12
21824;BME280;11074;48.596;9.238;2023-02-26T03:08:12;97777.53;;;3.02;66.02
21824;BME280;11074;48.596;9.238;2023-02-26T03:10:41;97783.47;;;2.98;67.03
21824;BME280;11074;48.596;9.238;2023-02-26T03:13:21;97784.13;;;2.87;66.37
21824;BME280;11074;48.596;9.238;2023-02-26T03:24:50;97791.19;;;2.93;65.46
21824;BME280;11074;48.596;9.238;2023-02-26T03:27:31;97793.91;;;2.80;66.06
21824;BME280;11074;48.596;9.238;2023-02-26T03:30:07;97795.53;;;2.81;67.14
21824;BME280;11074;48.596;9.238;2023-02-26T03:33:19;97798.00;;;2.76;68.10
21824;BME280;11074;48.596;9.238;2023-02-26T03:35:54;97798.94;;;2.88;67.71
21824;BME280;11074;48.596;9.238;2023-02-26T03:38:53;97804.28;;;2.81;67.56
21824;BME280;11074;48.596;9.238;2023-02-26T03:41:29;97806.56;;;2.71;67.36
21824;BME280;11074;48.596;9.238;2023-02-26T03:44:07;97803.72;;;2.66;67.19
21824;BME280;11074;48.596;9.238;2023-02-26T03:46:45;97809.03;;;2.60;66.79
21824;BME280;11074;48.596;9.238;2023-02-26T03:49:31;97804.44;;;2.49;67.31
21824;BME280;11074;48.596;9.238;2023-02-26T03:52:00;97808.50;;;2.44;67.93
21824;BME280;11074;48.596;9.238;2023-02-26T03:54:53;97807.13;;;2.35;66.82
21824;BME280;11074;48.596;9.238;2023-02-26T03:57:20;97815.25;;;2.27;67.95
21824;BME280;11074;48.596;9.238;2023-02-26T03:59:45;97814.06;;;2.23;67.68
21824;BME280;11074;48.596;9.238;2023-02-26T04:02:33;97813.03;;;2.31;68.46
21824;BME280;11074;48.596;9.238;2023-02-26T04:05:11;97823.34;;;2.32;67.74
21824;BME280;11074;48.596;9.238;2023-02-26T04:07:39;97813.59;;;2.39;69.98
21824;BME280;11074;48.596;9.238;2023-02-26T04:10:08;97816.53;;;2.63;70.70
21824;BME280;11074;48.596;9.238;2023-02-26T04:12:34;97819.13;;;2.76;68.40
21824;BME280;11074;48.596;9.238;2023-02-26T04:15:00;97821.25;;;2.54;67.21
21824;BME280;11074;48.596;9.238;2023-02-26T04:17:26;97820.84;;;2.51;68.17
21824;BME280;11074;48.596;9.238;2023-02-26T04:19:52;97830.44;;;2.38;66.95
21824;BME280;11074;48.596;9.238;2023-02-26T04:22:17;97823.38;;;2.26;68.04
21824;BME280;11074;48.596;9.238;2023-02-26T04:24:43;97818.91;;;2.26;67.80
21824;BME280;11074;48.596;9.238;2023-02-26T04:27:09;97829.09;;;2.10;67.87
21824;BME280;11074;48.596;9.238;2023-02-26T04:29:34;97832.34;;;2.05;68.08
21824;BME280;11074;48.596;9.238;2023-02-26T04:32:00;97840.25;;;2.12;68.41
21824;BME280;11074;48.596;9.238;2023-02-26T04:34:26;97836.97;;;2.16;68.27
21824;BME280;11074;48.596;9.238;2023-02-26T04:36:52;97841.63;;;2.27;68.71
21824;BME280;11074;48.596;9.238;2023-02-26T04:39:18;97842.00;;;2.44;67.94
21824;BME280;11074;48.596;9.238;2023-02-26T04:41:44;97844.41;;;2.45;67.17
21824;BME280;11074;48.596;9.238;2023-02-26T04:44:09;97838.31;;;2.45;67.74
21824;BME280;11074;48.596;9.238;2023-02-26T04:46:35;97846.63;;;2.49;66.81
21824;BME280;11074;48.596;9.238;2023-02-26T04:49:01;97843.22;;;2.41;68.31
21824;BME280;11074;48.596;9.238;2023-02-26T04:51:27;97849.91;;;2.37;67.34
21824;BME280;11074;48.596;9.238;2023-02-26T04:53:52;97857.16;;;2.55;66.95
21824;BME280;11074;48.596;9.238;2023-02-26T04:56:18;97853.72;;;2.48;67.44
21824;BME280;11074;48.596;9.238;2023-02-26T04:58:44;97850.91;;;2.43;67.43
21824;BME280;11074;48.596;9.238;2023-02-26T05:01:10;97858.00;;;2.49;68.01
21824;BME280;11074;48.596;9.238;2023-02-26T05:03:38;97847.22;;;2.51;68.34
21824;BME280;11074;48.596;9.238;2023-02-26T05:06:04;97852.66;;;2.69;67.62
21824;BME280;11074;48.596;9.238;2023-02-26T05:08:30;97854.25;;;2.70;67.15
21824;BME280;11074;48.596;9.238;2023-02-26T05:10:55;97851.41;;;2.71;66.65
21824;BME280;11074;48.596;9.238;2023-02-26T05:13:21;97859.41;;;2.58;66.92
21824;BME280;11074;48.596;9.238;2023-02-26T05:15:47;97855.47;;;2.67;67.62
21824;BME280;11074;48.596;9.238;2023-02-26T05:18:12;97862.16;;;2.76;66.74
21824;BME280;11074;48.596;9.238;2023-02-26T05:20:38;97864.75;;;2.83;67.11
21824;BME280;11074;48.596;9.238;2023-02-26T05:23:04;97864.91;;;2.94;66.81
21824;BME280;11074;48.596;9.238;2023-02-26T05:25:29;97873.63;;;2.95;65.70
21824;BME280;11074;48.596;9.238;2023-02-26T05:27:55;97874.22;;;2.97;65.34
21824;BME280;11074;48.596;9.238;2023-02-26T05:30:21;97876.47;;;3.00;66.61
21824;BME280;11074;48.596;9.238;2023-02-26T05:32:47;97879.69;;;3.02;65.51
21824;BME280;11074;48.596;9.238;2023-02-26T05:35:13;97881.50;;;3.01;66.45
21824;BME280;11074;48.596;9.238;2023-02-26T05:37:40;97889.66;;;3.00;65.76
21824;BME280;11074;48.596;9.238;2023-02-26T05:40:08;97894.59;;;2.90;65.29
21824;BME280;11074;48.596;9.238;2023-02-26T05:42:36;97900.88;;;2.82;66.83
21824;BME280;11074;48.596;9.238;2023-02-26T05:45:03;97892.78;;;2.84;65.96
21824;BME280;11074;48.596;9.238;2023-02-26T05:47:32;97905.38;;;2.82;66.13
21824;BME280;11074;48.596;9.238;2023-02-26T05:49:58;97906.16;;;2.82;66.79
21824;BME280;11074;48.596;9.238;2023-02-26T05:52:23;97913.88;;;2.84;66.48
21824;BME280;11074;48.596;9.238;2023-02-26T05:54:49;97917.16;;;2.79;66.68
21824;BME280;11074;48.596;9.238;2023-02-26T05:57:15;97921.22;;;2.82;66.61
21824;BME280;11074;48.596;9.238;2023-02-26T05:59:40;97915.94;;;2.82;68.15
21824;BME280;11074;48.596;9.238;2023-02-26T06:02:06;97928.31;;;2.81;67.46
21824;BME280;11074;48.596;9.238;2023-02-26T06:04:32;97926.69;;;2.80;67.32
21824;BME280;11074;48.596;9.238;2023-02-26T06:06:58;97929.13;;;2.82;67.77
21824;BME280;11074;48.596;9.238;2023-02-26T06:09:23;97932.38;;;2.84;68.78
21824;BME280;11074;48.596;9.238;2023-02-26T06:11:49;97937.41;;;2.85;67.55
21824;BME280;11074;48.596;9.238;2023-02-26T06:14:15;97936.81;;;2.83;67.88
21824;BME280;11074;48.596;9.238;2023-02-26T06:16:40;97940.47;;;2.82;66.94
21824;BME280;11074;48.596;9.238;2023-02-26T06:19:06;97947.38;;;2.83;68.08
21824;BME280;11074;48.596;9.238;2023-02-26T06:21:32;97947.59;;;2.82;67.16
21824;BME280;11074;48.596;9.238;2023-02-26T06:23:57;97959.56;;;2.84;68.49
21824;BME280;11074;48.596;9.238;2023-02-26T06:26:23;97959.34;;;2.86;67.98
21824;BME280;11074;48.596;9.238;2023-02-26T06:28:49;97956.72;;;2.86;68.15
21824;BME280;11074;48.596;9.238;2023-02-26T06:31:14;97962.81;;;2.80;67.89
21824;BME280;11074;48.596;9.238;2023-02-26T06:33:40;97965.63;;;2.85;67.44
21824;BME280;11074;48.596;9.238;2023-02-26T06:36:06;97966.88;;;2.82;67.19
21824;BME280;11074;48.596;9.238;2023-02-26T06:38:32;97968.50;;;2.83;67.65
21824;BME280;11074;48.596;9.238;2023-02-26T06:40:58;97970.31;;;2.83;68.09
21824;BME280;11074;48.596;9.238;2023-02-26T06:43:24;97978.06;;;2.84;67.88
21824;BME280;11074;48.596;9.238;2023-02-26T06:45:50;97982.50;;;2.84;68.22
21824;BME280;11074;48.596;9.238;2023-02-26T06:48:16;97991.47;;;2.76;67.31
21824;BME280;11074;48.596;9.238;2023-02-26T06:50:41;97993.47;;;2.81;67.68
21824;BME280;11074;48.596;9.238;2023-02-26T06:53:07;97993.66;;;2.86;68.17
21824;BME280;11074;48.596;9.238;2023-02-26T06:55:33;97995.06;;;2.88;68.20
21824;BME280;11074;48.596;9.238;2023-02-26T06:57:59;97999.41;;;2.63;66.82
21824;BME280;11074;48.596;9.238;2023-02-26T07:00:25;98005.53;;;2.44;68.08
21824;BME280;11074;48.596;9.238;2023-02-26T07:02:51;97999.81;;;2.40;68.54
21824;BME280;11074;48.596;9.238;2023-02-26T07:05:17;98004.69;;;2.11;68.41
21824;BME280;11074;48.596;9.238;2023-02-26T07:07:43;98012.00;;;2.22;69.05
21824;BME280;11074;48.596;9.238;2023-02-26T07:10:12;98014.44;;;2.30;70.11
21824;BME280;11074;48.596;9.238;2023-02-26T07:12:38;98023.16;;;2.30;69.50
21824;BME280;11074;48.596;9.238;2023-02-26T07:15:05;98017.47;;;2.27;70.58
21824;BME280;11074;48.596;9.238;2023-02-26T07:17:32;98024.16;;;2.42;70.08
21824;BME280;11074;48.596;9.238;2023-02-26T07:19:57;98021.31;;;2.51;69.38
21824;BME280;11074;48.596;9.238;2023-02-26T07:22:23;98025.38;;;2.53;69.16
21824;BME280;11074;48.596;9.238;2023-02-26T07:24:49;98020.09;;;2.66;69.46
21824;BME280;11074;48.596;9.238;2023-02-26T07:27:15;98030.06;;;2.58;68.28
21824;BME280;11074;48.596;9.238;2023-02-26T07:29:41;98026.00;;;2.55;68.20
21824;BME280;11074;48.596;9.238;2023-02-26T07:32:06;98031.06;;;2.57;69.20
21824;BME280;11074;48.596;9.238;2023-02-26T07:34:32;98029.22;;;2.64;68.85
21824;BME280;11074;48.596;9.238;2023-02-26T07:36:58;98025.38;;;2.66;68.02
21824;BME280;11074;48.596;9.238;2023-02-26T07:39:25;98025.16;;;2.81;68.23
21824;BME280;11074;48.596;9.238;2023-02-26T07:41:51;98030.63;;;2.66;67.94
21824;BME280;11074;48.596;9.238;2023-02-26T07:44:17;98031.06;;;2.63;68.57
21824;BME280;11074;48.596;9.238;2023-02-26T07:46:43;98025.78;;;2.70;69.01
21824;BME280;11074;48.596;9.238;2023-02-26T07:49:09;98026.19;;;2.73;68.68
21824;BME280;11074;48.596;9.238;2023-02-26T07:51:35;98032.09;;;2.69;67.28
21824;BME280;11074;48.596;9.238;2023-02-26T07:54:01;98034.50;;;2.70;68.27
21824;BME280;11074;48.596;9.238;2023-02-26T07:56:27;98034.50;;;2.64;67.50
21824;BME280;11074;48.596;9.238;2023-02-26T07:58:53;98039.59;;;2.52;69.33
21824;BME280;11074;48.596;9.238;2023-02-26T08:01:18;98049.31;;;2.65;69.11
21824;BME280;11074;48.596;9.238;2023-02-26T08:03:44;98047.91;;;2.75;69.36
21824;BME280;11074;48.596;9.238;2023-02-26T08:06:10;98056.03;;;2.74;68.26
21824;BME280;11074;48.596;9.238;2023-02-26T08:08:35;98054.41;;;2.53;67.83
21824;BME280;11074;48.596;9.238;2023-02-26T08:11:01;98057.88;;;2.60;69.24
21824;BME280;11074;48.596;9.238;2023-02-26T08:13:27;98059.88;;;2.52;70.81
21824;BME280;11074;48.596;9.238;2023-02-26T08:15:53;98061.09;;;2.56;73.08
21824;BME280;11074;48.596;9.238;2023-02-26T08:18:19;98054.81;;;2.63;74.09
21824;BME280;11074;48.596;9.238;2023-02-26T08:20:45;98048.53;;;2.71;73.53
21824;BME280;11074;48.596;9.238;2023-02-26T08:23:11;98048.91;;;2.74;73.58
21824;BME280;11074;48.596;9.238;2023-02-26T08:25:37;98050.97;;;2.46;74.45
21824;BME280;11074;48.596;9.238;2023-02-26T08:28:03;98054.59;;;2.65;75.39
21824;BME280;11074;48.596;9.238;2023-02-26T08:30:29;98061.09;;;2.75;74.39
21824;BME280;11074;48.596;9.238;2023-02-26T08:32:55;98048.72;;;2.76;73.66
21824;BME280;11074;48.596;9.238;2023-02-26T08:35:21;98055.00;;;2.81;73.04
21824;BME280;11074;48.596;9.238;2023-02-26T08:37:47;98069.22;;;2.74;73.29
21824;BME280;11074;48.596;9.238;2023-02-26T08:40:13;98065.97;;;2.59;72.86
21824;BME280;11074;48.596;9.238;2023-02-26T08:42:39;98061.50;;;2.59;73.28
21824;BME280;11074;48.596;9.238;2023-02-26T08:45:05;98067.41;;;2.55;71.79
21824;BME280;11074;48.596;9.238;2023-02-26T08:47:31;98069.63;;;2.44;72.27
21824;BME280;11074;48.596;9.238;2023-02-26T08:49:57;98071.44;;;2.51;72.17
21824;BME280;11074;48.596;9.238;2023-02-26T08:52:23;98072.06;;;2.53;72.43
21824;BME280;11074;48.596;9.238;2023-02-26T08:54:49;98082.00;;;2.31;71.41
21824;BME280;11074;48.596;9.238;2023-02-26T08:57:15;98085.44;;;2.38;71.72
21824;BME280;11074;48.596;9.238;2023-02-26T08:59:42;98076.53;;;2.52;72.65
21824;BME280;11074;48.596;9.238;2023-02-26T09:02:11;98084.03;;;2.49;72.27
21824;BME280;11074;48.596;9.238;2023-02-26T09:04:36;98087.47;;;2.56;73.03
21824;BME280;11074;48.596;9.238;2023-02-26T09:07:03;98085.44;;;2.51;72.43
21824;BME280;11074;48.596;9.238;2023-02-26T09:09:28;98081.22;;;2.50;71.49
21824;BME280;11074;48.596;9.238;2023-02-26T09:11:54;98085.66;;;2.50;71.15
21824;BME280;11074;48.596;9.238;2023-02-26T09:14:19;98094.59;;;2.49;71.84
21824;BME280;11074;48.596;9.238;2023-02-26T09:16:45;98088.50;;;2.61;72.41
21824;BME280;11074;48.596;9.238;2023-02-26T09:19:11;98090.94;;;2.56;72.37
21824;BME280;11074;48.596;9.238;2023-02-26T09:21:37;98093.16;;;2.72;72.36
21824;BME280;11074;48.596;9.238;2023-02-26T09:24:03;98098.66;;;2.84;72.80
21824;BME280;11074;48.596;9.238;2023-02-26T09:26:28;98103.31;;;2.88;72.35
21824;BME280;11074;48.596;9.238;2023-02-26T09:28:54;98107.56;;;2.96;72.87
21824;BME280;11074;48.596;9.238;2023-02-26T09:31:19;98111.63;;;2.92;72.01
21824;BME280;11074;48.596;9.238;2023-02-26T09:33:45;98121.38;;;2.98;72.93
21824;BME280;11074;48.596;9.238;2023-02-26T09:36:11;98110.81;;;2.98;71.97
21824;BME280;11074;48.596;9.238;2023-02-26T09:38:37;98113.66;;;2.96;71.50
21824;BME280;11074;48.596;9.238;2023-02-26T09:41:08;98115.25;;;3.04;72.16
21824;BME280;11074;48.596;9.238;2023-02-26T09:46:58;98124.44;;;2.95;71.78
21824;BME280;11074;48.596;9.238;2023-02-26T09:49:57;98118.91;;;3.16;72.48
21824;BME280;11074;48.596;9.238;2023-02-26T09:55:39;98125.75;;;3.50;71.14
21824;BME280;11074;48.596;9.238;2023-02-26T09:58:27;98126.91;;;3.60;71.30
21824;BME280;11074;48.596;9.238;2023-02-26T10:01:10;98132.44;;;3.59;69.84
21824;BME280;11074;48.596;9.238;2023-02-26T10:07:14;98139.00;;;3.24;69.18
21824;BME280;11074;48.596;9.238;2023-02-26T10:12:35;98134.31;;;3.32;70.53
21824;BME280;11074;48.596;9.238;2023-02-26T10:15:26;98142.81;;;3.54;70.71
21824;BME280;11074;48.596;9.238;2023-02-26T10:18:15;98139.72;;;3.63;69.89
21824;BME280;11074;48.596;9.238;2023-02-26T10:21:00;98144.78;;;3.65;69.58
21824;BME280;11074;48.596;9.238;2023-02-26T10:23:38;98127.28;;;3.71;69.84
21824;BME280;11074;48.596;9.238;2023-02-26T10:26:33;98136.72;;;3.53;68.50
21824;BME280;11074;48.596;9.238;2023-02-26T10:32:03;98135.31;;;3.44;70.12
21824;BME280;11074;48.596;9.238;2023-02-26T10:34:51;98126.38;;;3.45;68.65
21824;BME280;11074;48.596;9.238;2023-02-26T10:37:35;98131.44;;;3.53;69.14
21824;BME280;11074;48.596;9.238;2023-02-26T10:43:21;98139.34;;;3.47;68.62
21824;BME280;11074;48.596;9.238;2023-02-26T10:48:49;98132.97;;;3.67;68.93
21824;BME280;11074;48.596;9.238;2023-02-26T10:51:32;98134.25;;;3.58;67.74
21824;BME280;11074;48.596;9.238;2023-02-26T10:54:15;98134.06;;;3.53;68.58
21824;BME280;11074;48.596;9.238;2023-02-26T10:56:42;98131.06;;;3.37;69.12
21824;BME280;11074;48.596;9.238;2023-02-26T10:59:08;98143.22;;;3.51;69.37
21824;BME280;11074;48.596;9.238;2023-02-26T11:01:35;98126.75;;;3.55;67.76
21824;BME280;11074;48.596;9.238;2023-02-26T11:04:10;98140.19;;;3.47;68.32
21824;BME280;11074;48.596;9.238;2023-02-26T11:06:49;98129.81;;;3.46;68.03
21824;BME280;11074;48.596;9.238;2023-02-26T11:09:35;98143.41;;;3.49;68.12
21824;BME280;11074;48.596;9.238;2023-02-26T11:14:42;98150.13;;;3.52;68.36
21824;BME280;11074;48.596;9.238;2023-02-26T11:17:26;98152.78;;;3.39;67.89
21824;BME280;11074;48.596;9.238;2023-02-26T11:20:02;98156.63;;;3.49;68.30
21824;BME280;11074;48.596;9.238;2023-02-26T11:22:33;98156.03;;;3.54;68.47
21824;BME280;11074;48.596;9.238;2023-02-26T11:25:02;98164.50;;;3.62;68.22
21824;BME280;11074;48.596;9.238;2023-02-26T11:27:36;98158.84;;;3.52;66.84
21824;BME280;11074;48.596;9.238;2023-02-26T11:30:14;98140.59;;;3.51;67.49
21824;BME280;11074;48.596;9.238;2023-02-26T11:32:43;98147.84;;;3.62;67.28
21824;BME280;11074;48.596;9.238;2023-02-26T11:35:14;98150.13;;;3.52;66.17
21824;BME280;11074;48.596;9.238;2023-02-26T11:37:47;98152.56;;;3.53;66.94
21824;BME280;11074;48.596;9.238;2023-02-26T11:40:21;98149.09;;;3.46;65.46
21824;BME280;11074;48.596;9.238;2023-02-26T11:42:57;98148.88;;;3.54;66.40
21824;BME280;11074;48.596;9.238;2023-02-26T11:45:24;98144.22;;;3.56;67.11
21824;BME280;11074;48.596;9.238;2023-02-26T11:48:00;98144.59;;;3.60;66.61
21824;BME280;11074;48.596;9.238;2023-02-26T11:50:29;98155.81;;;3.55;66.37
21824;BME280;11074;48.596;9.238;2023-02-26T11:53:06;98151.53;;;3.61;66.86
21824;BME280;11074;48.596;9.238;2023-02-26T11:55:38;98139.75;;;3.50;66.04
21824;BME280;11074;48.596;9.238;2023-02-26T11:58:22;98137.50;;;3.60;66.14
21824;BME280;11074;48.596;9.238;2023-02-26T12:00:52;98139.91;;;3.68;65.71
21824;BME280;11074;48.596;9.238;2023-02-26T12:03:27;98138.44;;;3.79;66.48
21824;BME280;11074;48.596;9.238;2023-02-26T12:05:53;98133.91;;;3.93;66.37
21824;BME280;11074;48.596;9.238;2023-02-26T12:08:29;98136.72;;;4.04;65.40
21824;BME280;11074;48.596;9.238;2023-02-26T12:17:12;98151.41;;;3.94;65.60
21824;BME280;11074;48.596;9.238;2023-02-26T12:26:25;98154.59;;;4.09;66.52
21824;BME280;11074;48.596;9.238;2023-02-26T12:29:11;98149.41;;;4.20;64.85
21824;BME280;11074;48.596;9.238;2023-02-26T12:35:09;98135.69;;;4.37;62.50
21824;BME280;11074;48.596;9.238;2023-02-26T12:43:32;98142.41;;;4.39;63.48
21824;BME280;11074;48.596;9.238;2023-02-26T12:49:50;98142.84;;;4.36;63.22
21824;BME280;11074;48.596;9.238;2023-02-26T12:52:48;98143.53;;;4.25;62.74
21824;BME280;11074;48.596;9.238;2023-02-26T12:55:38;98143.88;;;4.28;62.71
21824;BME280;11074;48.596;9.238;2023-02-26T12:58:29;98155.28;;;4.29;62.78
21824;BME280;11074;48.596;9.238;2023-02-26T13:01:31;98149.19;;;4.28;62.97
21824;BME280;11074;48.596;9.238;2023-02-26T13:04:09;98154.34;;;4.17;62.29
21824;BME280;11074;48.596;9.238;2023-02-26T13:09:48;98153.75;;;4.15;64.50
21824;BME280;11074;48.596;9.238;2023-02-26T13:12:57;98157.63;;;4.12;65.35
21824;BME280;11074;48.596;9.238;2023-02-26T13:15:51;98167.00;;;4.08;66.19
21824;BME280;11074;48.596;9.238;2023-02-26T13:18:23;98155.88;;;3.93;65.08
21824;BME280;11074;48.596;9.238;2023-02-26T13:21:04;98159.72;;;3.97;66.73
21824;BME280;11074;48.596;9.238;2023-02-26T13:23:41;98153.38;;;4.05;66.37
21824;BME280;11074;48.596;9.238;2023-02-26T13:26:13;98157.13;;;3.91;64.73
21824;BME280;11074;48.596;9.238;2023-02-26T13:28:43;98154.25;;;3.92;65.83
21824;BME280;11074;48.596;9.238;2023-02-26T13:31:25;98157.22;;;4.09;64.35
21824;BME280;11074;48.596;9.238;2023-02-26T13:33:55;98162.41;;;4.28;64.59
21824;BME280;11074;48.596;9.238;2023-02-26T13:36:26;98158.75;;;4.29;62.98
21824;BME280;11074;48.596;9.238;2023-02-26T13:39:59;98159.50;;;4.37;63.71
21824;BME280;11074;48.596;9.238;2023-02-26T13:47:35;98166.22;;;4.39;62.77
21824;BME280;11074;48.596;9.238;2023-02-26T13:50:40;98165.84;;;4.36;62.45
21824;BME280;11074;48.596;9.238;2023-02-26T13:55:52;98163.63;;;4.26;62.49
21824;BME280;11074;48.596;9.238;2023-02-26T14:01:14;98163.03;;;4.31;62.47
21824;BME280;11074;48.596;9.238;2023-02-26T14:07:12;98166.41;;;4.75;60.71
21824;BME280;11074;48.596;9.238;2023-02-26T14:10:00;98156.13;;;5.10;60.36
21824;BME280;11074;48.596;9.238;2023-02-26T14:12:36;98164.41;;;4.96;56.85
21824;BME280;11074;48.596;9.238;2023-02-26T14:17:51;98164.91;;;4.86;57.46
21824;BME280;11074;48.596;9.238;2023-02-26T14:20:31;98164.06;;;4.85;58.48
21824;BME280;11074;48.596;9.238;2023-02-26T14:26:03;98160.16;;;4.95;57.54
21824;BME280;11074;48.596;9.238;2023-02-26T14:28:44;98159.06;;;5.02;58.43
21824;BME280;11074;48.596;9.238;2023-02-26T14:36:51;98172.66;;;5.30;55.29
21824;BME280;11074;48.596;9.238;2023-02-26T14:39:38;98176.09;;;5.74;53.48
21824;BME280;11074;48.596;9.238;2023-02-26T14:42:13;98174.91;;;5.70;53.17
21824;BME280;11074;48.596;9.238;2023-02-26T14:44:46;98169.31;;;5.60;54.45
21824;BME280;11074;48.596;9.238;2023-02-26T14:47:13;98183.75;;;5.45;54.55
21824;BME280;11074;48.596;9.238;2023-02-26T14:49:44;98186.69;;;5.37;54.07
21824;BME280;11074;48.596;9.238;2023-02-26T15:01:35;98180.22;;;6.24;53.28
21824;BME280;11074;48.596;9.238;2023-02-26T15:04:37;98177.72;;;7.47;48.39
21824;BME280;11074;48.596;9.238;2023-02-26T15:15:35;98180.41;;;8.78;45.42
21824;BME280;11074;48.596;9.238;2023-02-26T15:24:12;98203.25;;;7.13;50.03
21824;BME280;11074;48.596;9.238;2023-02-26T15:26:53;98209.56;;;6.89;48.00
21824;BME280;11074;48.596;9.238;2023-02-26T15:29:27;98208.06;;;6.51;49.88
21824;BME280;11074;48.596;9.238;2023-02-26T15:31:58;98220.03;;;6.24;50.70
21824;BME280;11074;48.596;9.238;2023-02-26T15:34:26;98225.81;;;5.78;50.00
21824;BME280;11074;48.596;9.238;2023-02-26T15:36:52;98228.13;;;5.32;53.13
21824;BME280;11074;48.596;9.238;2023-02-26T15:39:22;98227.59;;;5.17;53.49
21824;BME280;11074;48.596;9.238;2023-02-26T15:41:51;98225.88;;;5.04;55.11
21824;BME280;11074;48.596;9.238;2023-02-26T15:44:28;98227.13;;;5.02;56.26
21824;BME280;11074;48.596;9.238;2023-02-26T15:47:01;98242.13;;;4.83;57.55
21824;BME280;11074;48.596;9.238;2023-02-26T15:49:38;98245.94;;;4.87;58.47
21824;BME280;11074;48.596;9.238;2023-02-26T15:52:09;98247.41;;;4.83;59.50
21824;BME280;11074;48.596;9.238;2023-02-26T15:54:43;98237.91;;;4.69;59.05
21824;BME280;11074;48.596;9.238;2023-02-26T15:57:11;98244.66;;;4.65;57.74
21824;BME280;11074;48.596;9.238;2023-02-26T15:59:45;98247.31;;;4.65;56.98